»·PEaware :: N903DB KTRM-KIFP

N903DB :: KTRM-KIFP

FLIGHT INFORMATION

Flight Status: Arrived
Operator: Privately registered:
United States
More flights under this callsign
Pilot: Drew L. (13237)
Aircraft: SOCATA TBM-900
(TBM9)
More flights by this aircraft type
Origin: KTRM Desert Resorts Regl
United States
Destination: KIFP Laughlin/Bullhead Intl
United States
More flights between these airports :: More routes between these airports
Route: TRM V208 EED
File this flight plan on PilotEdge
Remarks: ROGER
Altitude:
(Current/Filed)
25,000ft
Speed:
(Current/Filed)
0kts
Departed: 22-Oct-18 08:16 PM
Arrived: 22-Oct-18 08:56 PM
Distance/Time
Traveled:
121nm/0:40
Distance/Time
To Go:
Arrived

Flight Plot

Page will automatically refresh every two minutes.

Flight plan parsing failed; only flown route is shown


Map Options




Map Legend


Flown Route
Filed Route
Departure Airport
Arrival Airport
Navaid (VOR, NDB)
Fix

Horizontal Profiles

Position Reports

Time Latitude Longitude Heading Altitude Ground
Speed
22-Oct-18 19:59 33.638039 -116.158165 271 -110ft 0kts
22-Oct-18 20:00 33.638039 -116.158165 271 -110ft 0kts
22-Oct-18 20:01 33.638039 -116.158165 271 -110ft 0kts
22-Oct-18 20:02 33.638039 -116.158165 271 -110ft 0kts
22-Oct-18 20:03 33.638039 -116.158165 271 -110ft 0kts
22-Oct-18 20:04 33.638039 -116.158165 271 -110ft 0kts
22-Oct-18 20:05 33.638039 -116.158165 271 -110ft 0kts
22-Oct-18 20:06 33.638039 -116.158165 271 -110ft 0kts
22-Oct-18 20:07 33.638039 -116.158165 271 -110ft 0kts
22-Oct-18 20:08 33.638039 -116.158165 271 -110ft 0kts
22-Oct-18 20:09 33.638039 -116.158165 271 -110ft 0kts
22-Oct-18 20:10 33.638039 -116.158165 271 -110ft 0kts
22-Oct-18 20:11 33.638101 -116.158264 336 -110ft 7kts
22-Oct-18 20:12 33.634697 -116.157690 179 -110ft 19kts
22-Oct-18 20:13 33.629202 -116.157690 184 -110ft 33kts
22-Oct-18 20:14 33.622484 -116.157715 180 -110ft 16kts
22-Oct-18 20:15 33.617871 -116.157725 179 -110ft 1kts
22-Oct-18 20:16 33.617870 -116.157725 179 -110ft 0kts
22-Oct-18 20:17 33.617870 -116.157725 179 -110ft 0kts
22-Oct-18 20:18 33.619054 -116.156432 0 -110ft 83kts
22-Oct-18 20:19 33.656784 -116.150624 46 1333ft 171kts
22-Oct-18 20:20 33.688062 -116.105969 27 3373ft 171kts
22-Oct-18 20:21 33.724662 -116.082746 32 5939ft 141kts
22-Oct-18 20:22 33.757270 -116.056620 33 7976ft 146kts
22-Oct-18 20:23 33.791108 -116.029422 33 9856ft 151kts
22-Oct-18 20:24 33.826169 -116.001204 34 11584ft 155kts
22-Oct-18 20:25 33.862314 -115.972095 34 13196ft 158kts
22-Oct-18 20:26 33.898606 -115.942826 35 14635ft 161kts
22-Oct-18 20:27 33.936007 -115.912632 36 15924ft 164kts
22-Oct-18 20:28 33.974356 -115.881640 37 17099ft 168kts
22-Oct-18 20:29 34.013499 -115.849963 38 18170ft 172kts
22-Oct-18 20:30 34.053369 -115.817672 38 19148ft 177kts
22-Oct-18 20:31 34.094714 -115.784132 38 20216ft 189kts
22-Oct-18 20:32 34.126671 -115.741284 63 22085ft 183kts
22-Oct-18 20:33 34.153931 -115.688603 64 23736ft 193kts
22-Oct-18 20:34 34.183602 -115.630586 64 24691ft 228kts
22-Oct-18 20:35 34.220106 -115.559229 63 24685ft 270kts
22-Oct-18 20:36 34.261204 -115.478738 62 24672ft 291kts
22-Oct-18 20:37 34.303343 -115.395971 62 25015ft 292kts
22-Oct-18 20:38 34.345869 -115.312228 63 24984ft 300kts
22-Oct-18 20:39 34.385921 -115.233187 63 24954ft 302kts
22-Oct-18 20:40 34.429179 -115.147663 63 24892ft 286kts
22-Oct-18 20:41 34.469597 -115.067408 62 24004ft 281kts
22-Oct-18 20:42 34.510421 -114.986230 61 22905ft 283kts
22-Oct-18 20:43 34.551149 -114.905186 60 21788ft 279kts
22-Oct-18 20:44 34.590495 -114.826663 60 20247ft 267kts
22-Oct-18 20:45 34.628336 -114.750933 60 18220ft 258kts
22-Oct-18 20:46 34.664510 -114.678397 60 16305ft 247kts
22-Oct-18 20:47 34.699113 -114.608880 59 14411ft 234kts
22-Oct-18 20:48 34.730164 -114.546385 59 12906ft 202kts
22-Oct-18 20:49 34.780507 -114.524190 10 11097ft 197kts
22-Oct-18 20:50 34.832742 -114.510332 8 9362ft 190kts
22-Oct-18 20:51 34.882935 -114.511588 355 7847ft 173kts
22-Oct-18 20:52 34.928176 -114.513949 343 6523ft 144kts
22-Oct-18 20:53 34.964275 -114.524352 331 4726ft 159kts
22-Oct-18 20:54 35.006923 -114.552303 330 3922ft 164kts
22-Oct-18 20:55 35.052096 -114.558158 0 3004ft 187kts
22-Oct-18 20:56 35.101190 -114.555691 357 1742ft 160kts
22-Oct-18 20:57 35.140108 -114.558307 356 841ft 109kts
22-Oct-18 20:58 35.155923 -114.558627 98 698ft 18kts
22-Oct-18 20:59 35.159537 -114.557408 88 698ft 17kts
22-Oct-18 21:00 35.160448 -114.556389 82 698ft 0kts
22-Oct-18 21:01 35.160448 -114.556389 82 698ft 0kts
22-Oct-18 21:02 35.160448 -114.556389 82 698ft 0kts
22-Oct-18 21:03 35.160448 -114.556389 82 698ft 0kts
22-Oct-18 21:04 35.160448 -114.556389 82 698ft 0kts
22-Oct-18 21:05 35.160448 -114.556389 82 698ft 0kts
22-Oct-18 21:06 35.160448 -114.556389 82 698ft 0kts
22-Oct-18 21:07 35.160448 -114.556389 82 698ft 0kts
22-Oct-18 21:08 35.160448 -114.556389 82 698ft 0kts
22-Oct-18 21:09 35.160448 -114.556389 82 698ft 0kts
22-Oct-18 21:10 35.160448 -114.556389 82 698ft 0kts
22-Oct-18 21:11 35.160448 -114.556389 82 698ft 0kts
22-Oct-18 21:12 35.160448 -114.556389 82 698ft 0kts
22-Oct-18 21:13 35.160448 -114.556389 82 698ft 0kts

Navigation Log

Ident Type
Flight plan parsing failed, navigation log unavailable